sensor_id;sensor_type;location;lat;lon;timestamp;temperature;humidity
770;DHT22;368;48.698;9.116;2023-03-13T00:00:28;5.20;99.90
770;DHT22;368;48.698;9.116;2023-03-13T00:02:54;5.50;99.90
770;DHT22;368;48.698;9.116;2023-03-13T00:05:21;5.60;99.90
770;DHT22;368;48.698;9.116;2023-03-13T00:07:48;5.60;99.90
770;DHT22;368;48.698;9.116;2023-03-13T00:10:17;5.90;99.90
770;DHT22;368;48.698;9.116;2023-03-13T00:12:45;6.00;99.90
770;DHT22;368;48.698;9.116;2023-03-13T00:15:11;6.10;99.90
770;DHT22;368;48.698;9.116;2023-03-13T00:17:39;6.20;99.90
770;DHT22;368;48.698;9.116;2023-03-13T00:20:06;6.60;99.90
770;DHT22;368;48.698;9.116;2023-03-13T00:22:33;6.40;99.90
770;DHT22;368;48.698;9.116;2023-03-13T00:25:00;6.40;99.90
770;DHT22;368;48.698;9.116;2023-03-13T00:27:31;6.40;99.90
770;DHT22;368;48.698;9.116;2023-03-13T00:29:59;6.60;99.90
770;DHT22;368;48.698;9.116;2023-03-13T00:32:25;6.60;99.90
770;DHT22;368;48.698;9.116;2023-03-13T00:34:52;6.30;99.90
770;DHT22;368;48.698;9.116;2023-03-13T00:37:19;6.40;99.90
770;DHT22;368;48.698;9.116;2023-03-13T00:39:46;6.70;99.90
770;DHT22;368;48.698;9.116;2023-03-13T00:42:15;6.30;99.90
770;DHT22;368;48.698;9.116;2023-03-13T00:44:45;6.30;99.90
770;DHT22;368;48.698;9.116;2023-03-13T00:47:11;6.20;99.90
770;DHT22;368;48.698;9.116;2023-03-13T00:49:38;6.30;99.90
770;DHT22;368;48.698;9.116;2023-03-13T00:52:05;6.50;99.90
770;DHT22;368;48.698;9.116;2023-03-13T00:54:32;6.70;99.90
770;DHT22;368;48.698;9.116;2023-03-13T00:57:00;7.00;99.90
770;DHT22;368;48.698;9.116;2023-03-13T00:59:27;6.70;99.90
770;DHT22;368;48.698;9.116;2023-03-13T01:01:55;6.90;99.90
770;DHT22;368;48.698;9.116;2023-03-13T01:04:21;6.90;99.90
770;DHT22;368;48.698;9.116;2023-03-13T01:06:48;6.80;99.90
770;DHT22;368;48.698;9.116;2023-03-13T01:09:15;6.80;99.90
770;DHT22;368;48.698;9.116;2023-03-13T01:11:44;6.90;99.90
770;DHT22;368;48.698;9.116;2023-03-13T01:14:12;6.90;99.90
770;DHT22;368;48.698;9.116;2023-03-13T01:16:39;6.70;99.90
770;DHT22;368;48.698;9.116;2023-03-13T01:19:09;6.60;99.90
770;DHT22;368;48.698;9.116;2023-03-13T01:21:37;6.90;99.90
770;DHT22;368;48.698;9.116;2023-03-13T01:24:04;6.70;99.90
770;DHT22;368;48.698;9.116;2023-03-13T01:26:31;6.90;99.90
770;DHT22;368;48.698;9.116;2023-03-13T01:28:58;6.80;99.90
770;DHT22;368;48.698;9.116;2023-03-13T01:31:28;6.80;99.90
770;DHT22;368;48.698;9.116;2023-03-13T01:33:56;6.80;99.90
770;DHT22;368;48.698;9.116;2023-03-13T01:36:25;7.20;99.90
770;DHT22;368;48.698;9.116;2023-03-13T01:38:53;7.10;99.90
770;DHT22;368;48.698;9.116;2023-03-13T01:41:21;7.40;99.90
770;DHT22;368;48.698;9.116;2023-03-13T01:43:48;7.20;99.90
770;DHT22;368;48.698;9.116;2023-03-13T01:46:16;7.40;99.90
770;DHT22;368;48.698;9.116;2023-03-13T01:48:47;7.50;99.90
770;DHT22;368;48.698;9.116;2023-03-13T01:51:18;7.40;99.90
770;DHT22;368;48.698;9.116;2023-03-13T01:53:50;7.40;99.90
770;DHT22;368;48.698;9.116;2023-03-13T01:56:29;7.50;99.90
770;DHT22;368;48.698;9.116;2023-03-13T01:58:58;7.60;99.90
770;DHT22;368;48.698;9.116;2023-03-13T02:01:25;7.60;99.90
770;DHT22;368;48.698;9.116;2023-03-13T02:03:55;7.70;99.90
770;DHT22;368;48.698;9.116;2023-03-13T02:06:23;8.00;99.90
770;DHT22;368;48.698;9.116;2023-03-13T02:08:55;7.80;99.90
770;DHT22;368;48.698;9.116;2023-03-13T02:11:28;7.50;99.90
770;DHT22;368;48.698;9.116;2023-03-13T02:13:58;8.00;99.90
770;DHT22;368;48.698;9.116;2023-03-13T02:16:26;8.10;99.90
770;DHT22;368;48.698;9.116;2023-03-13T02:18:55;8.00;99.90
770;DHT22;368;48.698;9.116;2023-03-13T02:21:38;8.00;99.90
770;DHT22;368;48.698;9.116;2023-03-13T02:24:20;8.00;99.90
770;DHT22;368;48.698;9.116;2023-03-13T02:26:50;8.20;99.90
770;DHT22;368;48.698;9.116;2023-03-13T02:29:17;8.30;99.90
770;DHT22;368;48.698;9.116;2023-03-13T02:31:45;8.00;99.90
770;DHT22;368;48.698;9.116;2023-03-13T02:34:14;8.20;99.90
770;DHT22;368;48.698;9.116;2023-03-13T02:36:44;8.40;99.90
770;DHT22;368;48.698;9.116;2023-03-13T02:39:12;8.50;99.90
770;DHT22;368;48.698;9.116;2023-03-13T02:41:44;8.30;99.90
770;DHT22;368;48.698;9.116;2023-03-13T02:44:13;8.30;99.90
770;DHT22;368;48.698;9.116;2023-03-13T02:46:44;8.40;99.90
770;DHT22;368;48.698;9.116;2023-03-13T02:49:20;8.50;99.90
770;DHT22;368;48.698;9.116;2023-03-13T02:51:47;8.50;99.90
770;DHT22;368;48.698;9.116;2023-03-13T02:54:17;8.60;99.90
770;DHT22;368;48.698;9.116;2023-03-13T02:56:46;8.60;99.90
770;DHT22;368;48.698;9.116;2023-03-13T02:59:15;8.60;99.90
770;DHT22;368;48.698;9.116;2023-03-13T03:01:43;8.30;99.90
770;DHT22;368;48.698;9.116;2023-03-13T03:04:10;8.70;99.90
770;DHT22;368;48.698;9.116;2023-03-13T03:06:37;8.80;99.90
770;DHT22;368;48.698;9.116;2023-03-13T03:09:04;8.70;99.90
770;DHT22;368;48.698;9.116;2023-03-13T03:11:31;8.50;99.90
770;DHT22;368;48.698;9.116;2023-03-13T03:13:58;8.70;99.90
770;DHT22;368;48.698;9.116;2023-03-13T03:16:26;8.90;99.90
770;DHT22;368;48.698;9.116;2023-03-13T03:18:54;9.00;99.90
770;DHT22;368;48.698;9.116;2023-03-13T03:21:21;8.80;99.90
770;DHT22;368;48.698;9.116;2023-03-13T03:23:49;8.90;99.90
770;DHT22;368;48.698;9.116;2023-03-13T03:26:16;8.70;99.90
770;DHT22;368;48.698;9.116;2023-03-13T03:28:43;9.00;99.90
770;DHT22;368;48.698;9.116;2023-03-13T03:31:12;9.20;99.90
770;DHT22;368;48.698;9.116;2023-03-13T03:33:42;9.10;99.90
770;DHT22;368;48.698;9.116;2023-03-13T03:36:12;9.20;99.90
770;DHT22;368;48.698;9.116;2023-03-13T03:38:40;9.20;99.90
770;DHT22;368;48.698;9.116;2023-03-13T03:41:08;9.20;99.90
770;DHT22;368;48.698;9.116;2023-03-13T03:43:35;9.40;99.90
770;DHT22;368;48.698;9.116;2023-03-13T03:46:02;9.20;99.90
770;DHT22;368;48.698;9.116;2023-03-13T03:48:28;9.30;99.90
770;DHT22;368;48.698;9.116;2023-03-13T03:50:57;9.30;99.90
770;DHT22;368;48.698;9.116;2023-03-13T03:53:25;9.50;99.90
770;DHT22;368;48.698;9.116;2023-03-13T03:55:52;9.70;99.90
770;DHT22;368;48.698;9.116;2023-03-13T03:58:19;9.50;99.90
770;DHT22;368;48.698;9.116;2023-03-13T04:00:47;9.70;99.90
770;DHT22;368;48.698;9.116;2023-03-13T04:03:14;9.50;99.90
770;DHT22;368;48.698;9.116;2023-03-13T04:05:41;9.70;99.90
770;DHT22;368;48.698;9.116;2023-03-13T04:08:11;9.90;99.90
770;DHT22;368;48.698;9.116;2023-03-13T04:10:38;9.80;99.90
770;DHT22;368;48.698;9.116;2023-03-13T04:13:05;9.90;99.90
770;DHT22;368;48.698;9.116;2023-03-13T04:15:32;10.00;99.90
770;DHT22;368;48.698;9.116;2023-03-13T04:17:59;10.40;99.90
770;DHT22;368;48.698;9.116;2023-03-13T04:20:26;10.30;99.90
770;DHT22;368;48.698;9.116;2023-03-13T04:22:53;10.50;99.90
770;DHT22;368;48.698;9.116;2023-03-13T04:25:22;10.40;99.90
770;DHT22;368;48.698;9.116;2023-03-13T04:27:48;10.40;99.90
770;DHT22;368;48.698;9.116;2023-03-13T04:30:15;10.40;99.90
770;DHT22;368;48.698;9.116;2023-03-13T04:32:42;10.90;99.90
770;DHT22;368;48.698;9.116;2023-03-13T04:35:09;11.00;99.90
770;DHT22;368;48.698;9.116;2023-03-13T04:37:37;10.60;99.90
770;DHT22;368;48.698;9.116;2023-03-13T04:40:05;10.90;99.90
770;DHT22;368;48.698;9.116;2023-03-13T04:42:33;10.50;99.90
770;DHT22;368;48.698;9.116;2023-03-13T04:45:00;10.80;99.90
770;DHT22;368;48.698;9.116;2023-03-13T04:47:28;10.40;99.90
770;DHT22;368;48.698;9.116;2023-03-13T04:49:55;10.70;99.90
770;DHT22;368;48.698;9.116;2023-03-13T04:52:22;10.50;99.90
770;DHT22;368;48.698;9.116;2023-03-13T04:54:49;10.80;99.90
770;DHT22;368;48.698;9.116;2023-03-13T04:57:16;10.60;99.90
770;DHT22;368;48.698;9.116;2023-03-13T04:59:44;10.70;99.90
770;DHT22;368;48.698;9.116;2023-03-13T05:02:12;10.60;99.90
770;DHT22;368;48.698;9.116;2023-03-13T05:04:40;10.50;99.90
770;DHT22;368;48.698;9.116;2023-03-13T05:07:06;10.50;99.90
770;DHT22;368;48.698;9.116;2023-03-13T05:09:33;10.90;99.90
770;DHT22;368;48.698;9.116;2023-03-13T05:12:02;10.50;99.90
770;DHT22;368;48.698;9.116;2023-03-13T05:14:30;10.90;99.90
770;DHT22;368;48.698;9.116;2023-03-13T05:17:01;10.60;99.90
770;DHT22;368;48.698;9.116;2023-03-13T05:19:31;10.80;99.90
770;DHT22;368;48.698;9.116;2023-03-13T05:21:58;10.80;99.90
770;DHT22;368;48.698;9.116;2023-03-13T05:24:25;10.60;99.90
770;DHT22;368;48.698;9.116;2023-03-13T05:26:51;10.80;99.90
770;DHT22;368;48.698;9.116;2023-03-13T05:29:18;10.60;99.90
770;DHT22;368;48.698;9.116;2023-03-13T05:31:49;10.80;99.90
770;DHT22;368;48.698;9.116;2023-03-13T05:34:18;11.00;99.90
770;DHT22;368;48.698;9.116;2023-03-13T05:36:45;10.70;99.90
770;DHT22;368;48.698;9.116;2023-03-13T05:39:11;10.70;99.90
770;DHT22;368;48.698;9.116;2023-03-13T05:41:38;11.00;99.90
770;DHT22;368;48.698;9.116;2023-03-13T05:44:07;11.10;99.90
770;DHT22;368;48.698;9.116;2023-03-13T05:46:34;11.10;99.90
770;DHT22;368;48.698;9.116;2023-03-13T05:49:01;10.90;99.90
770;DHT22;368;48.698;9.116;2023-03-13T05:51:30;11.00;99.90
770;DHT22;368;48.698;9.116;2023-03-13T05:53:57;11.30;99.90
770;DHT22;368;48.698;9.116;2023-03-13T05:56:23;11.10;99.90
770;DHT22;368;48.698;9.116;2023-03-13T05:58:50;10.90;99.90
770;DHT22;368;48.698;9.116;2023-03-13T06:01:17;11.20;99.90
770;DHT22;368;48.698;9.116;2023-03-13T06:03:44;11.20;99.90
770;DHT22;368;48.698;9.116;2023-03-13T06:06:10;11.00;99.90
770;DHT22;368;48.698;9.116;2023-03-13T06:08:39;11.30;99.90
770;DHT22;368;48.698;9.116;2023-03-13T06:11:06;11.00;99.90
770;DHT22;368;48.698;9.116;2023-03-13T06:13:35;11.10;99.90
770;DHT22;368;48.698;9.116;2023-03-13T06:16:02;11.40;99.90
770;DHT22;368;48.698;9.116;2023-03-13T06:18:30;11.40;99.90
770;DHT22;368;48.698;9.116;2023-03-13T06:20:58;11.30;99.90
770;DHT22;368;48.698;9.116;2023-03-13T06:23:25;11.30;99.90
770;DHT22;368;48.698;9.116;2023-03-13T06:25:54;11.50;99.90
770;DHT22;368;48.698;9.116;2023-03-13T06:28:21;11.30;99.90
770;DHT22;368;48.698;9.116;2023-03-13T06:30:48;11.60;99.90
770;DHT22;368;48.698;9.116;2023-03-13T06:33:15;11.40;99.90
770;DHT22;368;48.698;9.116;2023-03-13T06:35:43;11.70;99.90
770;DHT22;368;48.698;9.116;2023-03-13T06:38:10;11.60;99.90
770;DHT22;368;48.698;9.116;2023-03-13T06:40:37;11.50;99.90
770;DHT22;368;48.698;9.116;2023-03-13T06:43:06;11.70;99.90
770;DHT22;368;48.698;9.116;2023-03-13T06:45:35;11.50;99.90
770;DHT22;368;48.698;9.116;2023-03-13T06:48:02;11.50;99.90
770;DHT22;368;48.698;9.116;2023-03-13T06:50:28;11.60;99.90
770;DHT22;368;48.698;9.116;2023-03-13T06:52:55;11.60;99.90
770;DHT22;368;48.698;9.116;2023-03-13T06:55:22;11.60;99.90
770;DHT22;368;48.698;9.116;2023-03-13T06:57:51;11.50;99.90
770;DHT22;368;48.698;9.116;2023-03-13T07:00:21;11.70;99.90
770;DHT22;368;48.698;9.116;2023-03-13T07:02:48;11.60;99.90
770;DHT22;368;48.698;9.116;2023-03-13T07:05:17;11.50;99.90
770;DHT22;368;48.698;9.116;2023-03-13T07:07:43;11.60;99.90
770;DHT22;368;48.698;9.116;2023-03-13T07:10:12;11.40;99.90
770;DHT22;368;48.698;9.116;2023-03-13T07:12:39;11.60;99.90
770;DHT22;368;48.698;9.116;2023-03-13T07:15:07;11.50;99.90
770;DHT22;368;48.698;9.116;2023-03-13T07:17:36;11.80;99.90
770;DHT22;368;48.698;9.116;2023-03-13T07:20:04;11.70;99.90
770;DHT22;368;48.698;9.116;2023-03-13T07:22:34;11.80;99.90
770;DHT22;368;48.698;9.116;2023-03-13T07:25:00;11.90;99.90
770;DHT22;368;48.698;9.116;2023-03-13T07:27:27;11.80;99.90
770;DHT22;368;48.698;9.116;2023-03-13T07:29:54;11.90;99.90
770;DHT22;368;48.698;9.116;2023-03-13T07:32:21;12.00;99.90
770;DHT22;368;48.698;9.116;2023-03-13T07:34:50;11.90;99.90
770;DHT22;368;48.698;9.116;2023-03-13T07:37:17;11.80;99.90
770;DHT22;368;48.698;9.116;2023-03-13T07:39:44;11.70;99.90
770;DHT22;368;48.698;9.116;2023-03-13T07:42:11;11.70;99.90
770;DHT22;368;48.698;9.116;2023-03-13T07:44:39;11.90;99.90
770;DHT22;368;48.698;9.116;2023-03-13T07:47:06;11.90;99.90
770;DHT22;368;48.698;9.116;2023-03-13T07:49:33;12.00;99.90
770;DHT22;368;48.698;9.116;2023-03-13T07:52:06;12.10;99.90
770;DHT22;368;48.698;9.116;2023-03-13T07:54:33;12.10;99.90
770;DHT22;368;48.698;9.116;2023-03-13T07:57:01;12.00;99.90
770;DHT22;368;48.698;9.116;2023-03-13T07:59:28;11.90;99.90
770;DHT22;368;48.698;9.116;2023-03-13T08:01:54;12.30;99.90
770;DHT22;368;48.698;9.116;2023-03-13T08:04:22;12.30;99.90
770;DHT22;368;48.698;9.116;2023-03-13T08:06:49;12.10;99.90
770;DHT22;368;48.698;9.116;2023-03-13T08:09:18;12.20;99.90
770;DHT22;368;48.698;9.116;2023-03-13T08:11:45;12.20;99.90
770;DHT22;368;48.698;9.116;2023-03-13T08:14:14;12.40;99.90
770;DHT22;368;48.698;9.116;2023-03-13T08:16:41;12.50;99.90
770;DHT22;368;48.698;9.116;2023-03-13T08:19:09;12.60;99.90
770;DHT22;368;48.698;9.116;2023-03-13T08:21:36;12.90;99.90
770;DHT22;368;48.698;9.116;2023-03-13T08:24:05;13.20;99.90
770;DHT22;368;48.698;9.116;2023-03-13T08:26:40;13.50;99.90
770;DHT22;368;48.698;9.116;2023-03-13T08:29:09;13.50;99.90
770;DHT22;368;48.698;9.116;2023-03-13T08:31:38;13.50;99.90
770;DHT22;368;48.698;9.116;2023-03-13T08:34:07;13.60;99.90
770;DHT22;368;48.698;9.116;2023-03-13T08:36:35;13.80;99.90
770;DHT22;368;48.698;9.116;2023-03-13T08:39:05;13.70;99.90
770;DHT22;368;48.698;9.116;2023-03-13T08:41:33;13.70;99.90
770;DHT22;368;48.698;9.116;2023-03-13T08:44:03;13.40;99.90
770;DHT22;368;48.698;9.116;2023-03-13T08:46:34;13.20;99.90
770;DHT22;368;48.698;9.116;2023-03-13T08:49:04;13.20;99.90
770;DHT22;368;48.698;9.116;2023-03-13T08:51:31;13.10;99.90
770;DHT22;368;48.698;9.116;2023-03-13T08:53:59;13.40;99.90
770;DHT22;368;48.698;9.116;2023-03-13T08:56:28;13.40;99.90
770;DHT22;368;48.698;9.116;2023-03-13T08:58:57;13.40;99.90
770;DHT22;368;48.698;9.116;2023-03-13T09:01:27;13.30;99.90
770;DHT22;368;48.698;9.116;2023-03-13T09:03:54;13.50;99.90
770;DHT22;368;48.698;9.116;2023-03-13T09:06:22;13.70;99.90
770;DHT22;368;48.698;9.116;2023-03-13T09:08:50;13.60;99.90
770;DHT22;368;48.698;9.116;2023-03-13T09:11:19;13.60;99.90
770;DHT22;368;48.698;9.116;2023-03-13T09:13:49;14.10;99.90
770;DHT22;368;48.698;9.116;2023-03-13T09:16:18;14.00;99.90
770;DHT22;368;48.698;9.116;2023-03-13T09:18:47;13.70;99.90
770;DHT22;368;48.698;9.116;2023-03-13T09:21:16;13.70;99.90
770;DHT22;368;48.698;9.116;2023-03-13T09:23:44;13.70;99.90
770;DHT22;368;48.698;9.116;2023-03-13T09:26:12;14.00;99.90
770;DHT22;368;48.698;9.116;2023-03-13T09:28:40;14.10;99.90
770;DHT22;368;48.698;9.116;2023-03-13T09:31:09;14.20;99.90
770;DHT22;368;48.698;9.116;2023-03-13T09:33:36;14.00;99.90
770;DHT22;368;48.698;9.116;2023-03-13T09:36:05;14.30;99.90
770;DHT22;368;48.698;9.116;2023-03-13T09:38:32;14.20;99.90
770;DHT22;368;48.698;9.116;2023-03-13T09:41:03;14.40;99.90
770;DHT22;368;48.698;9.116;2023-03-13T09:43:39;14.40;99.90
770;DHT22;368;48.698;9.116;2023-03-13T09:46:14;14.50;99.90
770;DHT22;368;48.698;9.116;2023-03-13T09:48:46;14.60;99.90
770;DHT22;368;48.698;9.116;2023-03-13T09:51:23;14.70;99.90
770;DHT22;368;48.698;9.116;2023-03-13T09:53:56;15.00;99.90
770;DHT22;368;48.698;9.116;2023-03-13T09:56:25;15.80;99.90
770;DHT22;368;48.698;9.116;2023-03-13T09:58:57;16.40;99.90
770;DHT22;368;48.698;9.116;2023-03-13T10:01:28;15.90;99.90
770;DHT22;368;48.698;9.116;2023-03-13T10:04:05;15.50;99.90
770;DHT22;368;48.698;9.116;2023-03-13T10:06:39;16.20;99.60
770;DHT22;368;48.698;9.116;2023-03-13T10:09:16;17.60;97.70
770;DHT22;368;48.698;9.116;2023-03-13T10:11:50;17.90;96.10
770;DHT22;368;48.698;9.116;2023-03-13T10:14:21;18.80;94.80
770;DHT22;368;48.698;9.116;2023-03-13T10:16:55;18.90;94.10
770;DHT22;368;48.698;9.116;2023-03-13T10:19:31;20.10;92.90
770;DHT22;368;48.698;9.116;2023-03-13T10:22:02;20.00;91.80
770;DHT22;368;48.698;9.116;2023-03-13T10:24:32;20.20;92.00
770;DHT22;368;48.698;9.116;2023-03-13T10:27:00;20.80;90.60
770;DHT22;368;48.698;9.116;2023-03-13T10:29:28;20.70;90.10
770;DHT22;368;48.698;9.116;2023-03-13T10:31:57;20.50;90.80
770;DHT22;368;48.698;9.116;2023-03-13T10:34:25;21.40;88.90
770;DHT22;368;48.698;9.116;2023-03-13T10:36:59;21.10;88.00
770;DHT22;368;48.698;9.116;2023-03-13T10:39:28;22.00;86.50
770;DHT22;368;48.698;9.116;2023-03-13T10:41:58;21.00;87.90
770;DHT22;368;48.698;9.116;2023-03-13T10:44:35;19.90;89.80
770;DHT22;368;48.698;9.116;2023-03-13T10:47:03;18.60;91.30
770;DHT22;368;48.698;9.116;2023-03-13T10:49:31;18.10;92.30
770;DHT22;368;48.698;9.116;2023-03-13T10:52:01;17.70;93.00
770;DHT22;368;48.698;9.116;2023-03-13T10:54:29;17.20;93.50
770;DHT22;368;48.698;9.116;2023-03-13T10:57:09;17.00;93.90
770;DHT22;368;48.698;9.116;2023-03-13T10:59:46;17.10;93.90
770;DHT22;368;48.698;9.116;2023-03-13T11:02:21;17.40;93.80
770;DHT22;368;48.698;9.116;2023-03-13T11:04:48;17.50;93.70
770;DHT22;368;48.698;9.116;2023-03-13T11:07:25;17.30;93.70
770;DHT22;368;48.698;9.116;2023-03-13T11:09:58;17.10;94.20
770;DHT22;368;48.698;9.116;2023-03-13T11:12:25;16.90;94.30
770;DHT22;368;48.698;9.116;2023-03-13T11:14:56;16.90;94.50
770;DHT22;368;48.698;9.116;2023-03-13T11:17:29;16.80;95.20
770;DHT22;368;48.698;9.116;2023-03-13T11:20:04;16.80;94.30
770;DHT22;368;48.698;9.116;2023-03-13T11:25:27;17.30;94.40
770;DHT22;368;48.698;9.116;2023-03-13T11:28:05;17.10;94.00
770;DHT22;368;48.698;9.116;2023-03-13T11:30:45;17.00;94.30
770;DHT22;368;48.698;9.116;2023-03-13T11:33:26;17.10;94.30
770;DHT22;368;48.698;9.116;2023-03-13T11:35:59;17.90;94.20
770;DHT22;368;48.698;9.116;2023-03-13T11:38:32;19.60;92.40
770;DHT22;368;48.698;9.116;2023-03-13T11:41:09;20.50;90.80
770;DHT22;368;48.698;9.116;2023-03-13T11:43:49;21.70;88.30
770;DHT22;368;48.698;9.116;2023-03-13T11:46:27;23.10;83.00
770;DHT22;368;48.698;9.116;2023-03-13T11:49:25;22.70;83.10
770;DHT22;368;48.698;9.116;2023-03-13T11:52:01;21.90;84.50
770;DHT22;368;48.698;9.116;2023-03-13T11:54:52;22.90;81.50
770;DHT22;368;48.698;9.116;2023-03-13T11:57:26;23.40;80.20
770;DHT22;368;48.698;9.116;2023-03-13T12:02:47;23.70;78.00
770;DHT22;368;48.698;9.116;2023-03-13T12:05:18;24.80;76.00
770;DHT22;368;48.698;9.116;2023-03-13T12:07:49;25.20;73.60
770;DHT22;368;48.698;9.116;2023-03-13T12:10:21;24.80;72.50
770;DHT22;368;48.698;9.116;2023-03-13T12:12:53;24.70;74.40
770;DHT22;368;48.698;9.116;2023-03-13T12:15:27;25.00;71.30
770;DHT22;368;48.698;9.116;2023-03-13T12:18:00;25.50;71.50
770;DHT22;368;48.698;9.116;2023-03-13T12:20:33;25.30;70.70
770;DHT22;368;48.698;9.116;2023-03-13T12:23:16;25.20;69.00
770;DHT22;368;48.698;9.116;2023-03-13T12:25:49;25.10;71.00
770;DHT22;368;48.698;9.116;2023-03-13T12:28:25;25.40;69.80
770;DHT22;368;48.698;9.116;2023-03-13T12:31:02;25.50;68.10
770;DHT22;368;48.698;9.116;2023-03-13T12:33:33;24.30;70.10
770;DHT22;368;48.698;9.116;2023-03-13T12:36:07;24.10;69.90
770;DHT22;368;48.698;9.116;2023-03-13T12:38:38;24.40;70.40
770;DHT22;368;48.698;9.116;2023-03-13T12:41:16;24.80;69.30
770;DHT22;368;48.698;9.116;2023-03-13T12:43:47;25.00;68.40
770;DHT22;368;48.698;9.116;2023-03-13T12:46:31;25.10;68.10
770;DHT22;368;48.698;9.116;2023-03-13T12:52:11;25.80;64.90
770;DHT22;368;48.698;9.116;2023-03-13T12:54:52;24.90;65.40
770;DHT22;368;48.698;9.116;2023-03-13T12:57:52;24.20;66.90
770;DHT22;368;48.698;9.116;2023-03-13T13:00:25;24.20;66.60
770;DHT22;368;48.698;9.116;2023-03-13T13:03:09;24.00;66.70
770;DHT22;368;48.698;9.116;2023-03-13T13:05:57;23.50;67.20
770;DHT22;368;48.698;9.116;2023-03-13T13:08:25;23.80;66.50
770;DHT22;368;48.698;9.116;2023-03-13T13:10:52;23.50;67.00
770;DHT22;368;48.698;9.116;2023-03-13T13:13:34;23.10;67.40
770;DHT22;368;48.698;9.116;2023-03-13T13:16:06;23.20;68.70
770;DHT22;368;48.698;9.116;2023-03-13T13:18:38;24.30;67.50
770;DHT22;368;48.698;9.116;2023-03-13T13:21:23;24.40;66.40
770;DHT22;368;48.698;9.116;2023-03-13T13:23:51;24.30;66.10
770;DHT22;368;48.698;9.116;2023-03-13T13:26:48;23.20;68.00
770;DHT22;368;48.698;9.116;2023-03-13T13:32:54;23.00;68.60
770;DHT22;368;48.698;9.116;2023-03-13T13:35:29;22.50;69.70
770;DHT22;368;48.698;9.116;2023-03-13T13:38:28;22.30;70.70
770;DHT22;368;48.698;9.116;2023-03-13T13:41:04;21.40;72.80
770;DHT22;368;48.698;9.116;2023-03-13T13:43:33;21.40;73.80
770;DHT22;368;48.698;9.116;2023-03-13T13:46:03;21.40;73.10
770;DHT22;368;48.698;9.116;2023-03-13T13:48:35;21.10;73.40
770;DHT22;368;48.698;9.116;2023-03-13T13:51:25;20.90;73.90
770;DHT22;368;48.698;9.116;2023-03-13T13:53:55;21.70;72.50
770;DHT22;368;48.698;9.116;2023-03-13T13:56:40;22.00;72.00
770;DHT22;368;48.698;9.116;2023-03-13T13:59:41;22.70;70.30
770;DHT22;368;48.698;9.116;2023-03-13T14:02:19;23.40;69.40
770;DHT22;368;48.698;9.116;2023-03-13T14:04:54;23.00;70.10
770;DHT22;368;48.698;9.116;2023-03-13T14:07:26;22.80;69.60
770;DHT22;368;48.698;9.116;2023-03-13T14:10:05;22.90;69.60
770;DHT22;368;48.698;9.116;2023-03-13T14:12:33;23.30;68.80
770;DHT22;368;48.698;9.116;2023-03-13T14:15:22;23.70;67.60
770;DHT22;368;48.698;9.116;2023-03-13T14:17:51;22.90;68.30
770;DHT22;368;48.698;9.116;2023-03-13T14:20:29;22.00;69.60
770;DHT22;368;48.698;9.116;2023-03-13T14:22:58;21.70;69.80
770;DHT22;368;48.698;9.116;2023-03-13T14:25:28;22.10;70.00
770;DHT22;368;48.698;9.116;2023-03-13T14:28:15;23.10;68.20
770;DHT22;368;48.698;9.116;2023-03-13T14:30:42;23.90;65.20
770;DHT22;368;48.698;9.116;2023-03-13T14:33:09;24.90;62.70
770;DHT22;368;48.698;9.116;2023-03-13T14:35:38;24.50;63.00
770;DHT22;368;48.698;9.116;2023-03-13T14:38:05;23.20;65.00
770;DHT22;368;48.698;9.116;2023-03-13T14:40:36;23.80;64.50
770;DHT22;368;48.698;9.116;2023-03-13T14:43:17;24.50;63.00
770;DHT22;368;48.698;9.116;2023-03-13T14:45:44;25.30;61.20
770;DHT22;368;48.698;9.116;2023-03-13T14:48:17;25.50;61.80
770;DHT22;368;48.698;9.116;2023-03-13T14:50:47;25.50;61.50
770;DHT22;368;48.698;9.116;2023-03-13T14:53:17;25.60;61.50
770;DHT22;368;48.698;9.116;2023-03-13T14:55:45;25.40;62.00
770;DHT22;368;48.698;9.116;2023-03-13T14:58:27;24.40;62.90
770;DHT22;368;48.698;9.116;2023-03-13T15:00:55;23.40;64.60
770;DHT22;368;48.698;9.116;2023-03-13T15:03:30;23.20;66.00
770;DHT22;368;48.698;9.116;2023-03-13T15:06:13;23.60;66.20
770;DHT22;368;48.698;9.116;2023-03-13T15:08:42;25.00;63.30
770;DHT22;368;48.698;9.116;2023-03-13T15:11:24;24.90;62.20
770;DHT22;368;48.698;9.116;2023-03-13T15:13:51;25.00;62.60
770;DHT22;368;48.698;9.116;2023-03-13T15:16:20;24.20;63.00
770;DHT22;368;48.698;9.116;2023-03-13T15:18:48;23.30;65.10
770;DHT22;368;48.698;9.116;2023-03-13T15:21:26;22.90;66.80
770;DHT22;368;48.698;9.116;2023-03-13T15:23:57;23.10;66.60
770;DHT22;368;48.698;9.116;2023-03-13T15:26:25;22.20;67.40
770;DHT22;368;48.698;9.116;2023-03-13T15:28:52;22.90;67.00
770;DHT22;368;48.698;9.116;2023-03-13T15:31:21;23.90;65.20
770;DHT22;368;48.698;9.116;2023-03-13T15:33:54;24.00;64.20
770;DHT22;368;48.698;9.116;2023-03-13T15:36:24;23.50;65.60
770;DHT22;368;48.698;9.116;2023-03-13T15:38:51;23.60;65.00
770;DHT22;368;48.698;9.116;2023-03-13T15:41:19;22.80;66.00
770;DHT22;368;48.698;9.116;2023-03-13T15:43:47;21.40;69.20
770;DHT22;368;48.698;9.116;2023-03-13T15:46:17;22.00;68.90
770;DHT22;368;48.698;9.116;2023-03-13T15:48:44;22.10;69.30
770;DHT22;368;48.698;9.116;2023-03-13T15:51:13;22.90;69.20
770;DHT22;368;48.698;9.116;2023-03-13T15:53:42;23.20;67.70
770;DHT22;368;48.698;9.116;2023-03-13T15:56:13;22.70;69.10
770;DHT22;368;48.698;9.116;2023-03-13T15:58:40;22.40;70.00
770;DHT22;368;48.698;9.116;2023-03-13T16:01:09;22.30;70.60
770;DHT22;368;48.698;9.116;2023-03-13T16:03:36;22.40;70.80
770;DHT22;368;48.698;9.116;2023-03-13T16:06:13;22.10;70.70
770;DHT22;368;48.698;9.116;2023-03-13T16:08:43;21.60;72.10
770;DHT22;368;48.698;9.116;2023-03-13T16:11:12;22.10;71.60
770;DHT22;368;48.698;9.116;2023-03-13T16:13:40;22.50;70.40
770;DHT22;368;48.698;9.116;2023-03-13T16:16:19;23.10;69.20
770;DHT22;368;48.698;9.116;2023-03-13T16:18:47;23.60;68.50
770;DHT22;368;48.698;9.116;2023-03-13T16:21:18;23.80;68.30
770;DHT22;368;48.698;9.116;2023-03-13T16:23:46;22.80;69.20
770;DHT22;368;48.698;9.116;2023-03-13T16:26:16;21.40;71.90
770;DHT22;368;48.698;9.116;2023-03-13T16:28:43;20.60;74.50
770;DHT22;368;48.698;9.116;2023-03-13T16:31:18;20.20;75.60
770;DHT22;368;48.698;9.116;2023-03-13T16:33:46;19.90;76.70
770;DHT22;368;48.698;9.116;2023-03-13T16:36:15;19.70;77.30
770;DHT22;368;48.698;9.116;2023-03-13T16:38:43;19.60;78.10
770;DHT22;368;48.698;9.116;2023-03-13T16:41:14;19.40;78.40
770;DHT22;368;48.698;9.116;2023-03-13T16:43:41;19.30;78.70
770;DHT22;368;48.698;9.116;2023-03-13T16:46:11;19.20;79.30
770;DHT22;368;48.698;9.116;2023-03-13T16:48:39;18.90;80.10
770;DHT22;368;48.698;9.116;2023-03-13T16:51:08;18.90;80.40
770;DHT22;368;48.698;9.116;2023-03-13T16:53:40;18.80;80.80
770;DHT22;368;48.698;9.116;2023-03-13T16:56:14;18.80;80.90
770;DHT22;368;48.698;9.116;2023-03-13T16:58:42;18.60;81.40
770;DHT22;368;48.698;9.116;2023-03-13T17:01:08;18.40;82.10
770;DHT22;368;48.698;9.116;2023-03-13T17:03:35;18.30;83.00
770;DHT22;368;48.698;9.116;2023-03-13T17:06:03;18.30;82.80
770;DHT22;368;48.698;9.116;2023-03-13T17:08:30;18.10;83.70
770;DHT22;368;48.698;9.116;2023-03-13T17:10:57;18.00;84.20